Terminal Aerodrome Forecast
Issued by NWS

Home | Current Version | Previous Version | Text Only | Print | Product List | Glossary On
Versions: 1 2 3 4 5 6 7 8 9 10 11 12 13
000
FTUS44 KLZK 201300 AAA
TAFLIT
TAF AMD
KLIT 201357Z 2014/2112 VRB03KT P6SM SCT060 SCT250
      TEMPO 2014/2016 BKN060
     FM201600 17007KT P6SM SCT040 BKN250
     FM202000 20007KT P6SM SCT050 BKN250
     FM210100 19004KT P6SM SCT030 BKN060 PROB30 2109/2112 SHRA=

USA.gov is the U.S. government's official web portal to all federal, state and local government web resources and services.